地図

経路データ

SID SEASON NUMBER BASIN SUBBASIN NAME ISO_TIME NATURE LAT LON WMO_WIND WMO_PRES WMO_AGENCY TRACK_TYPE DIST2LAND LANDFALL IFLAG USA_AGENCY USA_ATCF_ID USA_LAT USA_LON USA_RECORD USA_STATUS USA_WIND USA_PRES USA_SSHS USA_R34_NE USA_R34_SE USA_R34_SW USA_R34_NW USA_R50_NE USA_R50_SE USA_R50_SW USA_R50_NW USA_R64_NE USA_R64_SE USA_R64_SW USA_R64_NW USA_POCI USA_ROCI USA_RMW USA_EYE TOKYO_LAT TOKYO_LON TOKYO_GRADE TOKYO_WIND TOKYO_PRES TOKYO_R50_DIR TOKYO_R50_LONG TOKYO_R50_SHORT TOKYO_R30_DIR TOKYO_R30_LONG TOKYO_R30_SHORT TOKYO_LAND CMA_LAT CMA_LON CMA_CAT CMA_WIND CMA_PRES HKO_LAT HKO_LON HKO_CAT HKO_WIND HKO_PRES NEWDELHI_LAT NEWDELHI_LON NEWDELHI_GRADE NEWDELHI_WIND NEWDELHI_PRES NEWDELHI_CI NEWDELHI_DP NEWDELHI_POCI REUNION_LAT REUNION_LON REUNION_TYPE REUNION_WIND REUNION_PRES REUNION_TNUM REUNION_CI REUNION_RMW REUNION_R34_NE REUNION_R34_SE REUNION_R34_SW REUNION_R34_NW REUNION_R50_NE REUNION_R50_SE REUNION_R50_SW REUNION_R50_NW REUNION_R64_NE REUNION_R64_SE REUNION_R64_SW REUNION_R64_NW BOM_LAT BOM_LON BOM_TYPE BOM_WIND BOM_PRES BOM_TNUM BOM_CI BOM_RMW BOM_R34_NE BOM_R34_SE BOM_R34_SW BOM_R34_NW BOM_R50_NE BOM_R50_SE BOM_R50_SW BOM_R50_NW BOM_R64_NE BOM_R64_SE BOM_R64_SW BOM_R64_NW BOM_ROCI BOM_POCI BOM_EYE BOM_POS_METHOD BOM_PRES_METHOD NADI_LAT NADI_LON NADI_CAT NADI_WIND NADI_PRES WELLINGTON_LAT WELLINGTON_LON WELLINGTON_WIND WELLINGTON_PRES DS824_LAT DS824_LON DS824_STAGE DS824_WIND DS824_PRES TD9636_LAT TD9636_LON TD9636_STAGE TD9636_WIND TD9636_PRES TD9635_LAT TD9635_LON TD9635_WIND TD9635_PRES TD9635_ROCI NEUMANN_LAT NEUMANN_LON NEUMANN_CLASS NEUMANN_WIND NEUMANN_PRES MLC_LAT MLC_LON MLC_CLASS MLC_WIND MLC_PRES USA_GUST BOM_GUST BOM_GUST_PER REUNION_GUST REUNION_GUST_PER USA_SEAHGT USA_SEARAD_NE USA_SEARAD_SE USA_SEARAD_SW USA_SEARAD_NW STORM_SPEED STORM_DIR
1963081S15154 1963 30 SP EA NOT_NAMED 1963-03-22 05:00:00 NR -15.0000 153.500 1004 bom main 578 562 ______O___O___ -1 -15.0000 153.500 1004 -15.0000 153.500 1 15 22 276
1963081S15154 1963 30 SP EA NOT_NAMED 1963-03-22 06:00:00 TS -14.9624 153.122 main 557 504 O_____P__OP___ jtwc_sh SH421963 -15.0000 153.100 15 -1 -14.9216 153.143 1004 -14.9000 153.100 TC 20 1004 -14.9967 153.135 1 15 21 274
1963081S15154 1963 30 SP EA NOT_NAMED 1963-03-22 09:00:00 TS -14.9011 152.029 main 501 482 P_____P__PP___ SH421963 -15.0040 151.940 15 -1 -14.7340 152.084 1004 -14.8183 152.085 TC 20 1004 -14.9860 152.055 1 15 21 272
1963081S15154 1963 30 SP EA NOT_NAMED 1963-03-22 11:00:00 TS -14.8895 151.335 1004 bom main 480 476 P_____O__PP___ SH421963 -15.0023 151.226 15 -1 -14.7000 151.400 1004 -14.7949 151.423 TC 20 1004 -14.9807 151.367 1 15 20 270
1963081S15154 1963 30 SP EA NOT_NAMED 1963-03-22 12:00:00 TS -14.9006 151.001 main 474 470 O_____P__OP___ jtwc_sh SH421963 -15.0000 150.900 15 -1 -14.7235 151.068 1003 -14.8000 151.100 TC 20 1004 -14.9795 151.037 1 15 18 267
1963081S15154 1963 30 SP EA NOT_NAMED 1963-03-22 15:00:00 TS -14.9490 150.116 main 470 462 P_____P__PP___ SH421963 -14.9919 150.068 15 -1 -14.8910 150.137 1002 -14.8849 150.183 TC 22 1003 -14.9852 150.126 1 15 16 266
1963081S15154 1963 30 SP EA NOT_NAMED 1963-03-22 17:00:00 TS -14.9905 149.612 1002 bom main 452 430 P_____O__PO___ SH421963 -14.9941 149.609 15 -1 -15.0000 149.600 1002 -14.9645 149.641 TC 24 1002 -15.0000 149.600 1 15 14 266
1963081S15154 1963 30 SP EA NOT_NAMED 1963-03-22 18:00:00 TS -15.0041 149.383 main 430 366 O_____P__OP___ jtwc_sh SH421963 -15.0000 149.400 15 -1 -15.0091 149.347 1002 -15.0000 149.400 TC 25 1002 -15.0116 149.366 1 15 12 267
1963081S15154 1963 30 SP EA NOT_NAMED 1963-03-22 21:00:00 TS -15.0350 148.756 main 366 333 P_____P__PP___ SH421963 -15.0349 148.768 15 -1 -14.9924 148.712 1002 -15.0498 148.752 TC 25 1002 -15.0632 148.779 1 15 11 266
1963081S15154 1963 30 SP EA NOT_NAMED 1963-03-22 23:00:00 TS -15.0681 148.433 1002 bom main 322 312 P_____O__PP___ SH421963 -15.0750 148.433 15 -1 -15.0000 148.400 1002 -15.0802 148.428 TC 25 1002 -15.1103 148.473 1 15 9 262
1963081S15154 1963 30 SP EA NOT_NAMED 1963-03-23 00:00:00 TS -15.0945 148.302 main 312 279 O_____P__OP___ jtwc_sh SH421963 -15.1000 148.300 15 -1 -15.0353 148.266 1002 -15.1000 148.300 TC 25 1002 -15.1372 148.344 1 15 6 252
1963081S15154 1963 30 SP EA NOT_NAMED 1963-03-23 03:00:00 TS -15.1951 148.025 main 279 268 P_____P__PP___ SH421963 -15.1848 148.032 15 -1 -15.1914 147.997 1002 -15.1848 148.025 TC 25 1002 -15.2299 148.040 1 15 5 244
1963081S15154 1963 30 SP EA NOT_NAMED 1963-03-23 05:00:00 TS -15.2750 147.921 1002 bom main 268 268 P_____O__PO___ SH421963 -15.2583 147.937 15 -1 -15.3000 147.900 1002 -15.2583 147.931 TC 25 1002 -15.3000 147.900 1 15 4 230
1963081S15154 1963 30 SP EA NOT_NAMED 1963-03-23 06:00:00 TS -15.3135 147.878 main 268 257 O_____P__OP___ jtwc_sh SH421963 -15.3000 147.900 15 -1 -15.3364 147.860 1002 -15.3000 147.900 TC 25 1002 -15.3310 147.831 1 15 3 219
1963081S15154 1963 30 SP EA NOT_NAMED 1963-03-23 09:00:00 TS -15.4430 147.777 main 257 244 P_____P__PP___ SH421963 -15.4500 147.770 15 -1 -15.4308 147.812 1002 -15.4500 147.827 TC 25 1002 -15.4340 147.704 1 15 3 211
1963081S15154 1963 30 SP EA NOT_NAMED 1963-03-23 11:00:00 TS -15.5342 147.743 1002 bom main 244 241 P_____O__PP___ SH421963 -15.5531 147.717 15 -1 -15.5000 147.800 1002 -15.5531 147.809 TC 25 1002 -15.5119 147.672 1 15 3 196
1963081S15154 1963 30 SP EA NOT_NAMED 1963-03-23 12:00:00 TS -15.5802 147.730 main 241 239 O_____P__OP___ jtwc_sh SH421963 -15.6000 147.700 15 -1 -15.5469 147.781 1002 -15.6000 147.800 TC 25 1002 -15.5540 147.668 1 15 3 195
1963081S15154 1963 30 SP EA NOT_NAMED 1963-03-23 15:00:00 TS -15.6963 147.704 main 239 234 P_____P__PP___ SH421963 -15.6925 147.685 15 -1 -15.7025 147.725 1002 -15.7000 147.743 TC 25 1002 -15.6941 147.682 1 15 2 188
1963081S15154 1963 30 SP EA NOT_NAMED 1963-03-23 17:00:00 TS -15.7759 147.700 1002 bom main 234 234 P_____O__PO___ SH421963 -15.7579 147.695 15 -1 -15.8000 147.700 1002 -15.7636 147.711 TC 25 1002 -15.8000 147.700 1 15 2 0
1963081S15154 1963 30 SP EA NOT_NAMED 1963-03-23 18:00:00 TS -15.8156 147.698 main 234 228 O_____P__OP___ jtwc_sh SH421963 -15.8000 147.700 15 -1 -15.8285 147.694 1002 -15.8000 147.700 TC 25 1002 -15.8492 147.694 1 15 3 0
1963081S15154 1963 30 SP EA NOT_NAMED 1963-03-23 21:00:00 TS -15.9585 147.695 main 222 216 P_____P__PP___ SH421963 -15.9775 147.700 15 -1 -15.9072 147.695 1002 -15.9200 147.692 TC 25 1002 -16.0104 147.690 1 15 3 0
1963081S15154 1963 30 SP EA NOT_NAMED 1963-03-23 23:00:00 TS -16.0815 147.698 1002 bom main 216 216 P_____O__PP___ SH421963 -16.1224 147.700 15 -1 -16.0000 147.700 1002 -16.0302 147.697 TC 25 1002 -16.1325 147.692 1 15 4 174
1963081S15154 1963 30 SP EA NOT_NAMED 1963-03-24 00:00:00 TS -16.1552 147.699 main 211 203 O_____P__OP___ jtwc_sh SH421963 -16.2000 147.700 15 -1 -16.0772 147.700 1002 -16.1000 147.700 TC 25 1002 -16.1990 147.695 1 15 5 176
1963081S15154 1963 30 SP EA NOT_NAMED 1963-03-24 03:00:00 TS -16.4071 147.700 main 203 192 P_____P__PP___ SH421963 -16.4275 147.700 15 -1 -16.3783 147.700 1002 -16.3775 147.700 TC 25 1002 -16.4245 147.700 1 15 5 0
1963081S15154 1963 30 SP EA NOT_NAMED 1963-03-24 05:00:00 TS -16.5995 147.700 1002 bom main 192 187 P_____O__PO___ SH421963 -16.6026 147.700 15 -1 -16.6000 147.700 1002 -16.5921 147.700 TC 25 1002 -16.6000 147.700 1 15 6 179
1963081S15154 1963 30 SP EA NOT_NAMED 1963-03-24 06:00:00 TS -16.6978 147.702 main 187 175 O_____P__OP___ jtwc_sh SH421963 -16.7000 147.700 15 -1 -16.6948 147.703 1002 -16.7000 147.700 TC 25 1002 -16.6941 147.706 1 15 6 0
1963081S15154 1963 30 SP EA NOT_NAMED 1963-03-24 09:00:00 TS -17.0095 147.712 main 175 171 P_____P__PP___ SH421963 -17.0350 147.707 15 -1 -16.9842 147.708 1002 -16.9850 147.715 TC 25 1002 -17.0083 147.723 1 15 7 178
1963081S15154 1963 30 SP EA NOT_NAMED 1963-03-24 11:00:00 TS -17.2369 147.709 1003 bom main 171 170 P_____O__PP___ SH421963 -17.2781 147.706 15 -1 -17.2000 147.700 1003 -17.1886 147.711 TC 25 1002 -17.2398 147.724 1 15 7 182
1963081S15154 1963 30 SP EA NOT_NAMED 1963-03-24 12:00:00 TS -17.3565 147.704 main 169 169 O_____P__OP___ jtwc_sh SH421963 -17.4000 147.700 15 -1 -17.3219 147.702 1003 -17.3000 147.700 TC 25 1003 -17.3608 147.719 1 15 7 185
1963081S15154 1963 30 SP EA NOT_NAMED 1963-03-24 15:00:00 TS -17.7263 147.671 main 169 152 P_____P__PP___ SH421963 -17.7425 147.680 15 -1 -17.7224 147.678 1003 -17.6849 147.645 TC 25 1003 -17.7394 147.670 1 15 8 189
1963081S15154 1963 30 SP EA NOT_NAMED 1963-03-24 17:00:00 TS -17.9833 147.607 1003 bom main 152 146 P_____O__PO___ SH421963 -17.9776 147.636 15 -1 -18.0000 147.600 1003 -17.9614 147.561 TC 25 1003 -18.0000 147.600 1 15 8 197
1963081S15154 1963 30 SP EA NOT_NAMED 1963-03-24 18:00:00 TS -18.1130 147.555 main 146 94 O_____P__OP___ jtwc_sh SH421963 -18.1000 147.600 15 -1 -18.1334 147.523 1003 -18.1000 147.500 TC 25 1003 -18.1315 147.551 1 15 9 207
1963081S15154 1963 30 SP EA NOT_NAMED 1963-03-24 21:00:00 TS -18.5121 147.326 main 94 59 P_____P__PP___ SH421963 -18.4901 147.428 15 -1 -18.5335 147.212 1003 -18.5052 147.235 TC 25 1003 -18.5288 147.354 1 15 9 211
1963081S15154 1963 30 SP EA NOT_NAMED 1963-03-24 23:00:00 TS -18.7836 147.136 1003 bom main 54 45 P_____O__PP___ SH421963 -18.7624 147.279 15 -1 -18.8000 147.000 1003 -18.7690 147.015 TC 25 1003 -18.7956 147.189 1 15 10 214
1963081S15154 1963 30 SP EA NOT_NAMED 1963-03-25 00:00:00 TS -18.9209 147.037 main 39 0 O_____P__OP___ jtwc_sh SH421963 -18.9000 147.200 15 -1 -18.9333 146.911 1003 -18.9000 146.900 TC 25 1003 -18.9294 147.099 1 15 10 213
1963081S15154 1963 30 SP EA NOT_NAMED 1963-03-25 03:00:00 NR -19.3324 146.757 main 0 0 ______P___P___ SH421963 -1 -19.3333 146.708 1003 TC -19.3316 146.806 1 15 10 211
1963081S15154 1963 30 SP EA NOT_NAMED 1963-03-25 05:00:00 NR -19.6000 146.600 1003 bom main 0 ______O___O___ SH421963 -1 -19.6000 146.600 1003 TC -19.6000 146.600 1 15 9 209

デジタル台風データ・検索

IBTrACS Databaseについて

本データベースは、米国NOAAが公開する1842年以降の世界の熱帯低気圧のベストトラックデータアーカイブInternational Best Track Archive for Climate Stewardship (IBTrACS)を、ウェブで閲覧しやすい形式に変換したものです。

最終更新日:2021-12-03